Time;durP1;ratioP1;P1;durP2;ratioP2;P2;SDS_P1;SDS_P2;PMS_P1;PMS_P2;Temp;Humidity;BMP_temperature;BMP_pressure;BME280_temperature;BME280_humidity;BME280_pressure;Samples;Min_cycle;Max_cycle;Signal;HPM_P1;HPM_P2
2022/07/01 00:01:43;;;;;;;10.63;9.30;;;21.20;99.90;;;;;;7375704;19;20688;-70
2022/07/01 00:04:09;;;;;;;9.00;8.10;;;21.00;99.90;;;;;;7377543;19;20332;-75
2022/07/01 00:06:34;;;;;;;9.27;8.38;;;21.00;99.90;;;;;;7375718;19;20997;-72
2022/07/01 00:09:01;;;;;;;8.85;7.68;;;21.00;99.90;;;;;;7377641;19;20353;-74
2022/07/01 00:11:26;;;;;;;8.43;7.63;;;20.90;99.90;;;;;;7376764;19;20328;-74
2022/07/01 00:13:52;;;;;;;9.40;8.40;;;21.00;99.90;;;;;;7374194;19;20683;-74
2022/07/01 00:16:17;;;;;;;9.73;8.73;;;21.00;99.90;;;;;;7376544;19;20387;-73
2022/07/01 00:18:43;;;;;;;9.32;8.32;;;20.90;99.90;;;;;;7376128;19;20319;-70
2022/07/01 00:21:09;;;;;;;9.13;8.27;;;20.90;99.90;;;;;;7374602;19;20352;-71
2022/07/01 00:23:34;;;;;;;9.27;8.33;;;20.90;99.90;;;;;;7373622;19;20887;-74
2022/07/01 00:26:00;;;;;;;8.57;7.70;;;20.90;99.90;;;;;;7374435;19;20344;-71
2022/07/01 00:28:25;;;;;;;9.50;7.57;;;20.80;99.90;;;;;;7375660;19;20396;-74
2022/07/01 00:30:52;;;;;;;9.05;8.15;;;20.90;99.90;;;;;;7375915;19;23794;-77
2022/07/01 00:33:17;;;;;;;9.65;8.10;;;20.90;99.90;;;;;;7372547;19;20296;-71
2022/07/01 00:35:43;;;;;;;9.40;8.30;;;20.80;99.90;;;;;;7378164;19;20356;-74
2022/07/01 00:38:09;;;;;;;9.00;8.10;;;20.80;99.90;;;;;;7376601;19;20348;-71
2022/07/01 00:40:34;;;;;;;8.65;7.85;;;20.80;99.90;;;;;;7375332;19;20871;-74
2022/07/01 00:43:00;;;;;;;8.10;7.23;;;20.80;99.90;;;;;;7372091;19;20337;-76
2022/07/01 00:45:25;;;;;;;10.10;8.80;;;20.70;99.90;;;;;;7377798;19;20325;-74
2022/07/01 00:47:51;;;;;;;9.40;8.43;;;20.70;99.90;;;;;;7377509;19;20347;-75
2022/07/01 00:50:16;;;;;;;8.55;7.65;;;20.70;99.90;;;;;;7375829;19;21342;-70
2022/07/01 00:52:43;;;;;;;9.33;8.37;;;20.70;99.90;;;;;;7371543;19;20359;-76
2022/07/01 00:55:12;;;;;;;10.13;9.23;;;20.60;99.90;;;;;;7375169;19;20344;-73
2022/07/01 00:57:38;;;;;;;9.25;8.35;;;20.60;99.90;;;;;;7375344;19;20863;-74
2022/07/01 01:00:16;;;;;;;9.73;8.70;;;20.50;99.90;;;;;;7375877;19;20872;-74
2022/07/01 01:02:42;;;;;;;10.05;9.05;;;20.50;99.90;;;;;;7371395;19;20348;-71
2022/07/01 01:05:08;;;;;;;10.63;9.60;;;20.50;99.90;;;;;;7374121;19;20332;-72
2022/07/01 01:07:33;;;;;;;9.83;8.83;;;20.50;99.90;;;;;;7376818;19;20321;-74
2022/07/01 01:09:59;;;;;;;11.02;9.93;;;20.60;99.90;;;;;;7372987;19;20337;-72
2022/07/01 01:12:25;;;;;;;9.90;8.90;;;20.50;99.90;;;;;;7372743;19;20320;-71
2022/07/01 01:14:51;;;;;;;9.35;8.45;;;20.50;99.90;;;;;;7373348;19;21017;-76
2022/07/01 01:17:17;;;;;;;9.95;8.95;;;20.40;99.90;;;;;;7374864;19;20336;-74
2022/07/01 01:19:43;;;;;;;10.02;9.02;;;20.40;99.90;;;;;;7376249;19;20400;-72
2022/07/01 01:22:09;;;;;;;9.70;8.80;;;20.40;99.90;;;;;;7370604;19;20357;-71
2022/07/01 01:24:36;;;;;;;9.25;8.25;;;20.40;99.90;;;;;;7373992;19;20356;-75
2022/07/01 01:27:05;;;;;;;10.65;9.55;;;20.40;99.90;;;;;;7374901;19;20370;-72
2022/07/01 01:29:31;;;;;;;11.40;10.30;;;20.30;99.90;;;;;;7374591;19;20393;-73
2022/07/01 01:31:56;;;;;;;12.82;11.38;;;20.30;99.90;;;;;;7368881;19;20324;-71
2022/07/01 01:34:22;;;;;;;12.07;10.05;;;20.10;99.90;;;;;;7373065;19;20974;-72
2022/07/01 01:36:47;;;;;;;12.13;10.82;;;20.10;99.90;;;;;;7372680;19;20336;-71
2022/07/01 01:39:16;;;;;;;11.53;10.43;;;20.10;99.90;;;;;;7373225;19;20317;-74
2022/07/01 01:41:45;;;;;;;12.25;10.98;;;20.00;99.90;;;;;;7371839;19;20831;-72
2022/07/01 01:44:11;;;;;;;11.15;10.05;;;19.90;99.90;;;;;;7373906;19;20400;-70
2022/07/01 01:46:37;;;;;;;10.37;9.27;;;19.90;99.90;;;;;;7373883;19;20919;-72
2022/07/01 01:49:03;;;;;;;14.75;13.25;;;19.90;99.90;;;;;;7374877;19;20329;-73
2022/07/01 01:52:09;;;;;;;11.45;10.32;;;19.90;99.90;;;;;;7369321;19;20386;-75
2022/07/01 01:58:03;;;;;;;12.40;11.10;;;19.80;99.90;;;;;;7261806;19;2004510;-71
2022/07/01 02:00:29;;;;;;;12.27;11.07;;;19.90;99.90;;;;;;7371607;19;20309;-71
2022/07/01 02:02:54;;;;;;;10.83;9.70;;;19.80;99.90;;;;;;7369839;19;20333;-70
2022/07/01 02:05:21;;;;;;;11.40;10.30;;;19.80;99.90;;;;;;7374301;19;20333;-72
2022/07/01 02:07:46;;;;;;;11.00;9.90;;;19.90;99.90;;;;;;7379270;19;20423;-73
2022/07/01 02:10:12;;;;;;;11.23;10.10;;;19.90;99.90;;;;;;7381056;19;20403;-73
2022/07/01 02:12:38;;;;;;;12.00;10.80;;;19.80;99.90;;;;;;7379368;19;20335;-73
2022/07/01 02:15:03;;;;;;;11.65;10.55;;;19.80;99.90;;;;;;7378077;19;20871;-71
2022/07/01 02:17:29;;;;;;;11.67;10.47;;;19.70;99.90;;;;;;7380216;19;20316;-71
2022/07/01 02:19:55;;;;;;;12.77;11.48;;;19.60;99.90;;;;;;7381527;19;20340;-70
2022/07/01 02:22:20;;;;;;;11.70;10.50;;;19.60;99.90;;;;;;7375948;19;20894;-75
2022/07/01 02:24:46;;;;;;;12.50;9.90;;;19.70;99.90;;;;;;7380017;19;20459;-70
2022/07/01 02:27:12;;;;;;;12.43;11.00;;;19.70;99.90;;;;;;7376762;19;20312;-73
2022/07/01 02:29:37;;;;;;;13.30;11.75;;;19.80;99.90;;;;;;7383316;19;20998;-72
2022/07/01 02:32:04;;;;;;;13.45;11.45;;;19.80;99.90;;;;;;7377884;19;20819;-73
2022/07/01 02:34:29;;;;;;;12.23;11.02;;;19.70;99.90;;;;;;7380901;19;20333;-72
2022/07/01 02:36:55;;;;;;;12.73;11.38;;;19.70;99.90;;;;;;7375881;19;20887;-73
2022/07/01 02:39:21;;;;;;;11.33;10.23;;;19.80;99.90;;;;;;7384161;19;20324;-72
2022/07/01 02:44:31;;;;;;;11.18;10.07;;;19.70;99.90;;;;;;7379710;19;20329;-71
2022/07/01 02:46:57;;;;;;;11.50;10.30;;;19.70;99.90;;;;;;7375645;19;20312;-75
2022/07/01 02:49:23;;;;;;;14.68;11.80;;;19.60;99.90;;;;;;7382207;19;20337;-75
2022/07/01 02:51:49;;;;;;;12.55;11.25;;;19.60;99.90;;;;;;7377368;19;20372;-71
2022/07/01 02:54:14;;;;;;;12.10;10.83;;;19.60;99.90;;;;;;7381983;19;21154;-72
2022/07/01 02:56:40;;;;;;;10.93;9.83;;;19.60;99.90;;;;;;7375343;19;20323;-71
2022/07/01 02:59:05;;;;;;;15.25;13.65;;;19.50;99.90;;;;;;7380993;19;20341;-70
2022/07/01 03:01:31;;;;;;;11.80;10.63;;;19.50;99.90;;;;;;7374883;19;22132;-70
2022/07/01 03:03:56;;;;;;;12.13;10.80;;;19.50;99.90;;;;;;7380202;19;20328;-71
2022/07/01 03:06:22;;;;;;;14.23;12.32;;;19.50;99.90;;;;;;7373565;19;21131;-71
2022/07/01 03:08:48;;;;;;;14.43;12.93;;;19.40;99.90;;;;;;7379412;19;20336;-74
2022/07/01 03:11:13;;;;;;;13.80;12.43;;;19.40;99.90;;;;;;7377280;19;20345;-71
2022/07/01 03:13:39;;;;;;;13.57;12.15;;;19.40;99.90;;;;;;7378691;19;20316;-70
2022/07/01 03:16:05;;;;;;;13.77;11.83;;;19.40;99.90;;;;;;7374480;19;20341;-75
2022/07/01 03:18:30;;;;;;;13.47;12.13;;;19.30;99.90;;;;;;7380328;19;20322;-71
2022/07/01 03:20:56;;;;;;;10.88;9.85;;;19.30;99.90;;;;;;7378875;19;20339;-71
2022/07/01 03:23:21;;;;;;;12.55;10.82;;;19.30;99.90;;;;;;7373596;19;20341;-72
2022/07/01 03:25:47;;;;;;;13.53;11.37;;;19.40;99.90;;;;;;7375935;19;20348;-73
2022/07/01 03:28:13;;;;;;;12.00;10.77;;;19.50;99.90;;;;;;7380496;19;20413;-73
2022/07/01 03:30:38;;;;;;;10.65;9.55;;;19.40;99.90;;;;;;7376256;19;20685;-77
2022/07/01 03:33:04;;;;;;;12.67;11.37;;;19.50;99.90;;;;;;7377676;19;20345;-72
2022/07/01 03:35:35;;;;;;;13.10;11.67;;;19.50;99.90;;;;;;7374332;19;20323;-73
2022/07/01 03:38:03;;;;;;;12.32;11.07;;;19.50;99.90;;;;;;7381634;19;20353;-76
2022/07/01 03:40:28;;;;;;;16.02;14.30;;;19.50;99.90;;;;;;7378302;19;20313;-72
2022/07/01 03:42:54;;;;;;;14.75;12.40;;;19.50;99.90;;;;;;7379967;19;21001;-72
2022/07/01 03:45:19;;;;;;;13.60;12.20;;;19.50;99.90;;;;;;7374632;19;20356;-73
2022/07/01 03:47:46;;;;;;;12.07;10.63;;;19.50;99.90;;;;;;7380225;19;20320;-72
2022/07/01 03:50:12;;;;;;;10.32;9.32;;;19.60;99.90;;;;;;7377633;19;21278;-73
2022/07/01 03:52:37;;;;;;;11.47;10.07;;;19.60;99.90;;;;;;7361660;19;20332;-72
2022/07/01 03:55:03;;;;;;;12.73;11.23;;;19.70;99.90;;;;;;7373292;19;20352;-71
2022/07/01 03:57:28;;;;;;;13.65;12.20;;;19.80;99.90;;;;;;7375217;19;20753;-75
2022/07/01 03:59:54;;;;;;;15.23;13.17;;;19.80;99.90;;;;;;7380147;19;20415;-77
2022/07/01 04:02:19;;;;;;;14.40;12.90;;;19.80;99.90;;;;;;7374845;19;20341;-75
2022/07/01 04:04:45;;;;;;;15.40;13.40;;;19.80;99.90;;;;;;7374723;19;20372;-72
2022/07/01 04:07:11;;;;;;;14.60;13.07;;;19.80;99.90;;;;;;7359051;19;21215;-73
2022/07/01 04:09:36;;;;;;;15.03;13.47;;;19.90;99.90;;;;;;7356086;19;20333;-73
2022/07/01 04:12:02;;;;;;;14.37;12.87;;;19.90;99.90;;;;;;7353125;19;20721;-75
2022/07/01 04:14:28;;;;;;;14.63;13.10;;;20.00;99.90;;;;;;7358631;19;20385;-72
2022/07/01 04:16:53;;;;;;;13.30;11.90;;;20.10;99.90;;;;;;7348930;19;20370;-72
2022/07/01 04:19:19;;;;;;;15.45;13.80;;;20.20;99.90;;;;;;7357211;19;20349;-74
2022/07/01 04:24:32;;;;;;;16.33;14.05;;;20.30;99.90;;;;;;7378667;19;20330;-72
2022/07/01 04:26:57;;;;;;;14.10;12.52;;;20.40;99.90;;;;;;7375163;19;20355;-74
2022/07/01 04:29:23;;;;;;;13.77;12.30;;;20.50;99.90;;;;;;7376773;19;20331;-73
2022/07/01 04:31:49;;;;;;;14.32;12.82;;;20.60;99.90;;;;;;7375507;19;20361;-71
2022/07/01 04:34:15;;;;;;;13.80;12.40;;;20.70;99.90;;;;;;7377269;19;20308;-72
2022/07/01 04:36:41;;;;;;;14.38;12.93;;;20.80;99.90;;;;;;7370678;19;20410;-73
2022/07/01 04:39:06;;;;;;;14.80;13.07;;;20.90;99.90;;;;;;7377894;19;20312;-71
2022/07/01 04:44:16;;;;;;;13.27;11.85;;;21.10;99.90;;;;;;7276130;19;2004529;-70
2022/07/01 04:46:42;;;;;;;13.95;12.45;;;21.20;99.90;;;;;;7368715;19;20754;-72
2022/07/01 04:49:08;;;;;;;16.83;15.00;;;21.30;99.90;;;;;;7369460;19;20344;-74
2022/07/01 04:51:34;;;;;;;13.82;12.40;;;21.40;99.90;;;;;;7364298;19;20339;-71
2022/07/01 04:54:03;;;;;;;16.02;14.30;;;21.50;99.90;;;;;;7376357;19;20349;-72
2022/07/01 04:56:29;;;;;;;13.20;11.48;;;21.50;99.90;;;;;;7369915;19;20324;-75
2022/07/01 04:58:55;;;;;;;12.50;10.60;;;21.60;99.90;;;;;;7376383;19;20357;-71
2022/07/01 05:01:22;;;;;;;13.38;11.10;;;21.70;99.90;;;;;;7365227;19;20347;-72
2022/07/01 05:03:47;;;;;;;17.17;12.73;;;21.90;99.90;;;;;;7369167;19;20352;-71
2022/07/01 05:06:13;;;;;;;11.70;10.10;;;22.10;99.90;;;;;;7370679;19;20351;-72
2022/07/01 05:08:38;;;;;;;14.50;12.10;;;22.20;99.90;;;;;;7377750;19;20309;-71
2022/07/01 05:11:04;;;;;;;11.57;10.20;;;22.40;99.90;;;;;;7376715;19;20300;-72
2022/07/01 05:13:30;;;;;;;14.90;11.33;;;22.60;99.90;;;;;;7374444;19;20349;-72
2022/07/01 05:15:55;;;;;;;13.70;11.27;;;22.70;99.90;;;;;;7366163;19;20863;-73
2022/07/01 05:23:50;;;;;;;10.98;9.88;;;23.10;99.90;;;;;;7273136;19;2004511;-71
2022/07/01 05:26:17;;;;;;;12.23;10.75;;;23.30;99.90;;;;;;7371707;19;20317;-71
2022/07/01 05:28:43;;;;;;;11.00;9.85;;;23.40;99.90;;;;;;7376481;19;20330;-72
2022/07/01 05:31:09;;;;;;;13.07;11.63;;;23.60;99.90;;;;;;7372715;19;20313;-73
2022/07/01 05:33:35;;;;;;;13.87;12.40;;;23.70;99.90;;;;;;7375930;19;20309;-71
2022/07/01 05:36:01;;;;;;;11.20;10.05;;;23.90;99.90;;;;;;7369025;19;20320;-70
2022/07/01 05:38:27;;;;;;;11.63;10.47;;;24.00;99.90;;;;;;7377131;19;20411;-71
2022/07/01 05:40:53;;;;;;;12.38;10.57;;;24.20;99.90;;;;;;7369592;19;21066;-71
2022/07/01 05:43:19;;;;;;;11.75;10.25;;;24.40;99.90;;;;;;7376566;19;20334;-72
2022/07/01 05:45:44;;;;;;;13.07;10.85;;;24.60;99.90;;;;;;7369558;19;20729;-73
2022/07/01 05:48:10;;;;;;;11.67;10.57;;;24.80;99.90;;;;;;7377175;19;20369;-72
2022/07/01 05:50:36;;;;;;;12.05;10.55;;;24.90;99.90;;;;;;7377372;19;20322;-71
2022/07/01 05:53:01;;;;;;;13.93;10.55;;;25.20;99.90;;;;;;7378562;19;20348;-71
2022/07/01 05:55:27;;;;;;;11.67;10.47;;;25.30;99.90;;;;;;7371662;19;20316;-71
2022/07/01 05:57:52;;;;;;;12.43;10.30;;;25.50;99.90;;;;;;7377738;19;20364;-71
2022/07/01 06:00:18;;;;;;;11.23;10.07;;;25.60;99.90;;;;;;7377098;19;20332;-71
2022/07/01 06:02:43;;;;;;;10.40;9.40;;;25.70;99.90;;;;;;7376344;19;20392;-73
2022/07/01 06:05:09;;;;;;;11.20;10.10;;;25.80;99.90;;;;;;7372437;19;20341;-71
2022/07/01 06:07:35;;;;;;;9.57;8.67;;;25.90;99.90;;;;;;7378415;19;20974;-72
2022/07/01 06:10:00;;;;;;;9.80;8.80;;;25.90;99.90;;;;;;7378680;19;20408;-72
2022/07/01 06:12:26;;;;;;;9.27;7.60;;;26.10;99.90;;;;;;7377378;19;20317;-72
2022/07/01 06:14:52;;;;;;;10.87;9.60;;;26.20;99.90;;;;;;7372423;19;21525;-72
2022/07/01 06:17:17;;;;;;;10.25;9.25;;;26.40;99.90;;;;;;7374109;19;20320;-71
2022/07/01 06:19:43;;;;;;;11.27;10.07;;;26.50;99.90;;;;;;7377129;19;20336;-71
2022/07/01 06:22:09;;;;;;;11.20;10.03;;;26.50;99.90;;;;;;7375185;19;20333;-71
2022/07/01 06:24:35;;;;;;;11.40;9.70;;;26.50;99.90;;;;;;7374848;19;21185;-71
2022/07/01 06:27:00;;;;;;;12.07;9.63;;;26.60;99.90;;;;;;7373030;19;20309;-71
2022/07/01 06:29:29;;;;;;;10.77;9.32;;;26.60;99.90;;;;;;7376749;19;20333;-71
2022/07/01 06:31:55;;;;;;;10.73;9.63;;;26.70;99.90;;;;;;7373814;19;20684;-71
2022/07/01 06:34:20;;;;;;;10.60;9.43;;;26.90;99.90;;;;;;7376137;19;20312;-71
2022/07/01 06:36:46;;;;;;;12.03;10.07;;;27.00;99.90;;;;;;7370198;19;20999;-71
2022/07/01 06:39:11;;;;;;;11.73;9.37;;;27.10;99.90;;;;;;7374844;19;20349;-71
2022/07/01 06:41:37;;;;;;;12.13;9.50;;;27.00;99.90;;;;;;7374452;19;20666;-71
2022/07/01 06:44:04;;;;;;;8.38;7.57;;;27.10;99.90;;;;;;7377340;19;20320;-71
2022/07/01 06:46:30;;;;;;;8.87;7.97;;;27.30;99.90;;;;;;7368175;19;21191;-71
2022/07/01 06:48:56;;;;;;;10.30;9.30;;;27.70;99.90;;;;;;7375133;19;20345;-71
2022/07/01 06:51:22;;;;;;;9.93;8.97;;;27.60;99.90;;;;;;7376697;19;20337;-71
2022/07/01 06:53:49;;;;;;;9.73;8.60;;;27.60;99.90;;;;;;7382657;19;20424;-71
2022/07/01 06:56:15;;;;;;;8.68;7.80;;;27.60;99.90;;;;;;7376050;19;20743;-71
2022/07/01 06:58:41;;;;;;;9.53;8.63;;;27.60;99.90;;;;;;7381374;19;20368;-71
2022/07/01 07:01:07;;;;;;;9.40;8.50;;;27.60;99.90;;;;;;7379634;19;20856;-71
2022/07/01 07:03:32;;;;;;;8.93;7.97;;;27.70;99.90;;;;;;7382417;19;20321;-71
2022/07/01 07:06:01;;;;;;;8.30;6.57;;;27.90;99.90;;;;;;7375315;19;20407;-71
2022/07/01 07:08:28;;;;;;;7.53;6.55;;;28.10;99.90;;;;;;7383733;19;20328;-71
2022/07/01 07:10:53;;;;;;;8.48;7.55;;;28.30;99.90;;;;;;7379762;19;20355;-71
2022/07/01 07:13:19;;;;;;;9.00;6.70;;;28.50;99.90;;;;;;7380266;19;20317;-71
2022/07/01 07:15:44;;;;;;;8.40;7.60;;;28.60;99.90;;;;;;7375646;19;20781;-72
2022/07/01 07:18:10;;;;;;;11.47;7.90;;;28.70;99.90;;;;;;7381773;19;20346;-72
2022/07/01 07:20:36;;;;;;;7.37;6.67;;;28.60;99.90;;;;;;7381371;19;20324;-72
2022/07/01 07:23:02;;;;;;;9.63;7.57;;;28.80;99.90;;;;;;7382133;19;20694;-73
2022/07/01 07:25:27;;;;;;;8.20;6.78;;;28.90;99.90;;;;;;7375694;19;20316;-72
2022/07/01 07:27:53;;;;;;;8.60;7.80;;;29.00;99.90;;;;;;7381016;19;20368;-72
2022/07/01 07:30:19;;;;;;;8.03;5.93;;;28.60;99.90;;;;;;7378787;19;20328;-72
2022/07/01 07:32:45;;;;;;;7.25;6.55;;;28.90;99.90;;;;;;7379694;19;20324;-72
2022/07/01 07:35:11;;;;;;;8.40;7.05;;;29.30;99.90;;;;;;7375424;19;20323;-71
2022/07/01 07:37:36;;;;;;;7.60;6.90;;;29.50;99.90;;;;;;7379861;19;20321;-73
2022/07/01 07:40:03;;;;;;;9.07;7.25;;;29.70;99.90;;;;;;7379887;19;20308;-72
2022/07/01 07:42:29;;;;;;;7.90;6.40;;;29.80;99.90;;;;;;7378887;19;20316;-71
2022/07/01 07:44:54;;;;;;;7.47;6.77;;;29.90;99.90;;;;;;7377063;19;20448;-73
2022/07/01 07:47:20;;;;;;;9.00;7.63;;;30.00;99.90;;;;;;7379620;19;20328;-73
2022/07/01 07:49:45;;;;;;;8.40;7.63;;;30.00;99.90;;;;;;7380028;19;20336;-73
2022/07/01 07:52:11;;;;;;;9.10;7.20;;;30.00;99.90;;;;;;7378720;19;20350;-71
2022/07/01 07:54:37;;;;;;;8.48;7.65;;;30.10;99.90;;;;;;7377955;19;20317;-72
2022/07/01 07:57:03;;;;;;;8.07;7.28;;;30.20;99.90;;;;;;7379586;19;20840;-72
2022/07/01 07:59:29;;;;;;;7.93;7.13;;;30.20;99.90;;;;;;7380818;19;20311;-73
2022/07/01 08:01:54;;;;;;;7.78;7.05;;;30.30;99.90;;;;;;7377864;19;20309;-72
2022/07/01 08:04:20;;;;;;;9.40;7.95;;;30.40;99.90;;;;;;7377985;19;21057;-72
2022/07/01 08:06:45;;;;;;;7.45;6.75;;;30.40;99.90;;;;;;7374384;19;20431;-70
2022/07/01 08:09:11;;;;;;;7.97;6.80;;;30.50;99.90;;;;;;7379970;19;20412;-72
2022/07/01 08:11:37;;;;;;;8.30;7.00;;;30.60;99.90;;;;;;7380448;19;20353;-71
2022/07/01 08:14:02;;;;;;;7.33;6.63;;;30.80;99.90;;;;;;7379117;19;20404;-72
2022/07/01 08:16:28;;;;;;;8.53;6.63;;;30.90;99.90;;;;;;7371952;19;20417;-75
2022/07/01 08:18:53;;;;;;;6.90;6.20;;;31.10;99.90;;;;;;7380143;19;20365;-73
2022/07/01 08:21:19;;;;;;;6.60;5.90;;;31.30;99.90;;;;;;7380140;19;20321;-72
2022/07/01 08:23:44;;;;;;;6.43;5.83;;;31.40;99.90;;;;;;7379312;19;20342;-72
2022/07/01 08:26:13;;;;;;;7.65;5.55;;;30.90;99.90;;;;;;7374278;19;20301;-72
2022/07/01 08:28:39;;;;;;;6.35;5.68;;;31.30;99.90;;;;;;7378494;19;20320;-71
2022/07/01 08:31:04;;;;;;;5.88;5.25;;;31.30;99.90;;;;;;7379088;19;20320;-70
2022/07/01 08:33:30;;;;;;;6.30;4.90;;;31.60;99.90;;;;;;7379871;19;20336;-70
2022/07/01 08:35:56;;;;;;;6.30;5.70;;;31.70;99.90;;;;;;7374044;19;20349;-72
2022/07/01 08:38:22;;;;;;;7.93;6.30;;;31.80;99.90;;;;;;7379752;19;20395;-72
2022/07/01 08:40:47;;;;;;;6.45;5.85;;;31.60;99.90;;;;;;7377621;19;20348;-73
2022/07/01 08:43:13;;;;;;;6.40;5.75;;;31.40;99.90;;;;;;7380731;19;21170;-72
2022/07/01 08:45:39;;;;;;;7.10;6.40;;;31.60;99.90;;;;;;7374538;19;20353;-72
2022/07/01 08:48:05;;;;;;;8.43;6.70;;;31.30;99.90;;;;;;7379994;19;20401;-72
2022/07/01 08:50:31;;;;;;;7.95;5.75;;;31.10;99.90;;;;;;7379578;19;20305;-72
2022/07/01 08:52:57;;;;;;;7.55;5.50;;;31.10;99.90;;;;;;7377375;19;20365;-73
2022/07/01 08:55:23;;;;;;;5.97;5.47;;;30.90;99.90;;;;;;7374425;19;20341;-72
2022/07/01 08:57:49;;;;;;;6.18;5.53;;;31.10;99.90;;;;;;7379149;19;20385;-72
2022/07/01 09:00:15;;;;;;;7.00;4.95;;;31.20;99.90;;;;;;7377291;19;20342;-72
2022/07/01 09:02:59;;;;;;;5.90;5.03;;;31.60;99.90;;;;;;7378036;19;20321;-72
2022/07/01 09:05:26;;;;;;;5.53;5.03;;;31.40;99.90;;;;;;7375513;19;20360;-73
2022/07/01 09:07:59;;;;;;;5.25;4.80;;;31.00;99.90;;;;;;7379069;19;20357;-71
2022/07/01 09:10:24;;;;;;;5.95;5.35;;;31.00;99.90;;;;;;7376861;19;21188;-72
2022/07/01 09:12:50;;;;;;;8.15;5.70;;;31.20;99.90;;;;;;7378117;19;20328;-70
2022/07/01 09:15:26;;;;;;;6.35;5.32;;;31.00;99.90;;;;;;7373592;19;20357;-71
2022/07/01 09:18:06;;;;;;;6.65;5.70;;;31.60;99.90;;;;;;7376507;19;20419;-72
2022/07/01 09:20:35;;;;;;;6.27;5.67;;;32.10;99.90;;;;;;7376481;19;20312;-72
2022/07/01 09:23:05;;;;;;;6.55;5.95;;;32.20;99.90;;;;;;7376820;19;20400;-71
2022/07/01 09:25:37;;;;;;;7.03;6.07;;;32.30;99.90;;;;;;7372630;19;20324;-70
2022/07/01 09:28:12;;;;;;;6.63;5.80;;;32.20;99.90;;;;;;7380185;19;20407;-72
2022/07/01 09:30:37;;;;;;;6.38;5.78;;;32.00;99.90;;;;;;7374352;19;20313;-72
2022/07/01 09:33:14;;;;;;;6.27;5.67;;;31.90;99.90;;;;;;7377129;19;21138;-71
2022/07/01 09:35:39;;;;;;;6.38;5.80;;;31.70;99.90;;;;;;7268914;19;2004361;-72
2022/07/01 09:38:07;;;;;;;6.90;6.20;;;31.50;99.90;;;;;;7376890;19;20328;-70
2022/07/01 09:40:51;;;;;;;7.07;6.22;;;31.20;99.90;;;;;;7375585;19;20327;-73
2022/07/01 09:43:31;;;;;;;6.40;5.80;;;31.50;99.90;;;;;;7273965;19;2004442;-71
2022/07/01 09:46:00;;;;;;;9.55;6.20;;;31.80;99.90;;;;;;7371915;19;20348;-72
2022/07/01 09:48:33;;;;;;;6.35;5.57;;;32.10;99.90;;;;;;7378451;19;20366;-72
2022/07/01 09:50:59;;;;;;;6.63;5.47;;;32.40;99.90;;;;;;7376423;19;20328;-73
2022/07/01 09:53:25;;;;;;;5.55;5.05;;;32.90;99.90;;;;;;7377301;19;20356;-71
2022/07/01 09:55:51;;;;;;;6.57;5.63;;;33.10;99.90;;;;;;7369879;19;21305;-73
2022/07/01 09:58:17;;;;;;;6.03;5.47;;;33.20;99.90;;;;;;7377977;19;20320;-73
2022/07/01 10:00:42;;;;;;;6.80;5.95;;;33.20;99.90;;;;;;7375270;19;20365;-73
2022/07/01 10:03:08;;;;;;;6.63;5.40;;;33.40;99.90;;;;;;7376721;19;20311;-72
2022/07/01 10:05:47;;;;;;;6.05;5.55;;;33.50;99.90;;;;;;7371993;19;20308;-73
2022/07/01 10:08:22;;;;;;;6.17;5.57;;;33.20;99.90;;;;;;7271966;19;2019934;-72
2022/07/01 10:11:06;;;;;;;6.50;5.90;;;33.10;99.90;;;;;;7375815;19;20355;-74
2022/07/01 10:13:31;;;;;;;6.50;5.90;;;32.40;99.90;;;;;;7378661;19;20771;-73
2022/07/01 10:15:57;;;;;;;7.68;6.88;;;32.90;99.90;;;;;;7371130;19;20355;-73
2022/07/01 10:18:24;;;;;;;13.17;8.47;;;32.60;99.90;;;;;;7375969;19;20327;-73
2022/07/01 10:20:50;;;;;;;9.60;8.23;;;32.30;99.90;;;;;;7374882;19;20325;-73
2022/07/01 10:23:15;;;;;;;6.95;6.22;;;32.30;99.90;;;;;;7376730;19;20339;-72
2022/07/01 10:25:45;;;;;;;8.05;5.10;;;31.30;99.90;;;;;;7371103;19;20324;-73
2022/07/01 10:28:39;;;;;;;4.93;4.45;;;31.10;99.90;;;;;;7382478;19;20320;-71
2022/07/01 10:31:05;;;;;;;5.85;3.65;;;31.00;99.90;;;;;;7381702;19;20320;-72
2022/07/01 10:33:47;;;;;;;3.63;3.30;;;30.90;99.90;;;;;;7382908;19;20415;-70
2022/07/01 10:36:16;;;;;;;3.50;3.20;;;29.60;99.90;;;;;;7274681;19;2004890;-71
2022/07/01 10:39:03;;;;;;;3.75;3.13;;;30.20;99.90;;;;;;7382338;19;20350;-71
2022/07/01 10:41:42;;;;;;;2.60;2.40;;;30.20;99.90;;;;;;7383331;19;20335;-72
2022/07/01 10:44:12;;;;;;;2.87;2.67;;;30.40;99.90;;;;;;7383519;19;20316;-72
2022/07/01 10:46:43;;;;;;;5.93;2.75;;;30.40;99.90;;;;;;7377358;19;20337;-72
2022/07/01 10:49:09;;;;;;;3.15;2.55;;;30.30;99.90;;;;;;7279820;19;2004507;-72
2022/07/01 10:51:54;;;;;;;2.70;2.40;;;29.90;99.90;;;;;;7383971;19;20836;-72
2022/07/01 10:54:43;;;;;;;2.60;2.30;;;28.80;99.90;;;;;;7280015;19;2020080;-71
2022/07/01 10:57:18;;;;;;;2.50;2.30;;;28.60;99.90;;;;;;7381064;19;21159;-72
2022/07/01 10:59:44;;;;;;;4.43;2.33;;;28.30;99.90;;;;;;7280418;19;2004571;-72
2022/07/01 11:02:15;;;;;;;2.42;2.22;;;28.20;99.90;;;;;;7379516;19;20340;-72
2022/07/01 11:04:40;;;;;;;2.00;1.90;;;28.40;99.90;;;;;;7379065;19;20979;-70
2022/07/01 11:07:06;;;;;;;2.13;2.00;;;28.80;99.90;;;;;;7378851;19;20475;-71
2022/07/01 11:09:31;;;;;;;3.17;2.10;;;28.30;99.90;;;;;;7381551;19;20317;-72
2022/07/01 11:11:57;;;;;;;2.17;2.08;;;28.20;99.90;;;;;;7380103;19;20366;-73
2022/07/01 11:14:23;;;;;;;4.60;1.88;;;27.70;99.90;;;;;;7382376;19;20321;-71
2022/07/01 11:16:48;;;;;;;2.42;2.20;;;27.40;99.90;;;;;;7377343;19;20335;-70
2022/07/01 11:19:19;;;;;;;2.70;2.00;;;26.90;99.90;;;;;;7380434;19;20428;-75
2022/07/01 11:21:49;;;;;;;1.83;1.73;;;27.00;99.90;;;;;;7380257;19;20320;-72
2022/07/01 11:24:16;;;;;;;1.80;1.70;;;27.20;99.90;;;;;;7381639;19;20313;-73
2022/07/01 11:26:42;;;;;;;3.00;1.60;;;27.00;99.90;;;;;;7374882;19;20325;-72
2022/07/01 11:29:10;;;;;;;1.80;1.70;;;27.60;99.90;;;;;;7383490;19;20947;-71
2022/07/01 11:31:36;;;;;;;2.33;1.88;;;27.30;99.90;;;;;;7379044;19;20317;-72
2022/07/01 11:34:01;;;;;;;2.38;1.98;;;26.80;99.90;;;;;;7381222;19;20387;-71
2022/07/01 11:39:23;;;;;;;1.60;1.50;;;26.70;99.90;;;;;;7276550;19;2004518;-75
2022/07/01 11:42:06;;;;;;;3.67;1.70;;;27.00;99.90;;;;;;7381004;19;20359;-72
2022/07/01 11:44:36;;;;;;;2.15;1.95;;;26.60;99.90;;;;;;7379903;19;20305;-69
2022/07/01 11:47:03;;;;;;;2.25;2.00;;;26.60;99.90;;;;;;7378940;19;20305;-71
2022/07/01 11:49:28;;;;;;;2.10;1.50;;;26.90;99.90;;;;;;7382241;19;20325;-72
2022/07/01 11:51:56;;;;;;;1.63;1.53;;;27.30;99.90;;;;;;7380378;19;20851;-71
2022/07/01 11:54:22;;;;;;;1.80;1.63;;;26.60;99.90;;;;;;7380533;19;20327;-71
2022/07/01 11:56:47;;;;;;;1.90;1.80;;;26.70;99.90;;;;;;7373395;19;20469;-71
2022/07/01 11:59:13;;;;;;;1.60;1.50;;;27.10;99.90;;;;;;7379665;19;20895;-71
2022/07/01 12:01:39;;;;;;;3.70;1.70;;;27.20;99.90;;;;;;7379839;19;20335;-71
2022/07/01 12:04:06;;;;;;;1.65;1.55;;;27.00;99.90;;;;;;7379972;19;20313;-72
2022/07/01 12:06:32;;;;;;;2.20;1.70;;;26.80;99.90;;;;;;7375112;19;20328;-74
2022/07/01 12:08:58;;;;;;;1.98;1.77;;;26.10;99.90;;;;;;7379824;19;20677;-71
2022/07/01 12:11:24;;;;;;;1.50;1.40;;;26.10;99.90;;;;;;7376835;19;20313;-73
2022/07/01 12:13:50;;;;;;;1.65;1.55;;;26.10;99.90;;;;;;7380217;19;20340;-73
2022/07/01 12:16:15;;;;;;;2.90;1.60;;;26.50;99.90;;;;;;7374252;19;20839;-74
2022/07/01 12:18:58;;;;;;;1.63;1.50;;;26.50;99.90;;;;;;7380094;19;20325;-73
2022/07/01 12:21:24;;;;;;;1.60;1.50;;;26.70;99.90;;;;;;7378149;19;20368;-74
2022/07/01 12:24:09;;;;;;;1.40;1.30;;;26.40;99.90;;;;;;7378766;19;20309;-72
2022/07/01 12:26:35;;;;;;;2.90;1.52;;;26.50;99.90;;;;;;7368238;19;20333;-75
2022/07/01 12:29:00;;;;;;;3.10;1.30;;;26.70;99.90;;;;;;7377706;19;20884;-70
2022/07/01 12:31:26;;;;;;;1.23;1.20;;;26.40;99.90;;;;;;7371062;19;20344;-73
2022/07/01 12:33:51;;;;;;;1.50;1.40;;;26.60;99.90;;;;;;7375007;19;20333;-71
2022/07/01 12:36:17;;;;;;;1.40;1.30;;;26.50;99.90;;;;;;7374627;19;20384;-70
2022/07/01 12:38:43;;;;;;;1.50;1.40;;;25.70;99.90;;;;;;7377925;19;20332;-71
2022/07/01 12:41:33;;;;;;;1.37;1.30;;;25.70;99.90;;;;;;7375810;19;20717;-71
2022/07/01 12:43:59;;;;;;;1.45;1.35;;;24.70;99.90;;;;;;7274700;19;2004779;-74
2022/07/01 12:46:31;;;;;;;1.60;1.50;;;24.50;99.90;;;;;;7372058;19;20332;-77
2022/07/01 12:48:57;;;;;;;1.52;1.42;;;24.10;99.90;;;;;;7376444;19;20387;-72
2022/07/01 12:51:32;;;;;;;2.40;1.60;;;24.00;99.90;;;;;;7377918;19;20328;-73
2022/07/01 12:53:58;;;;;;;1.67;1.50;;;23.30;99.90;;;;;;7374304;19;20354;-70
2022/07/01 12:56:25;;;;;;;1.60;1.50;;;22.80;99.90;;;;;;7371254;19;20324;-74
2022/07/01 12:58:52;;;;;;;1.60;1.50;;;23.00;99.90;;;;;;7377626;19;20517;-71